Time;durP1;ratioP1;P1;durP2;ratioP2;P2;SDS_P1;SDS_P2;PMS_P1;PMS_P2;Temp;Humidity;BMP_temperature;BMP_pressure;BME280_temperature;BME280_humidity;BME280_pressure;Samples;Min_cycle;Max_cycle;Signal;HPM_P1;HPM_P2
2023/12/09 00:02:01;;;;;;;33.22;29.83;;;;;;;6.49;96.12;97826.97;5076953;28;20273;-73
2023/12/09 00:04:28;;;;;;;29.17;26.17;;;;;;;6.42;96.50;97820.66;5078068;28;20205;-73
2023/12/09 00:06:54;;;;;;;31.92;28.58;;;;;;;6.18;97.40;97831.56;5109376;28;20196;-72
2023/12/09 00:09:21;;;;;;;27.45;24.55;;;;;;;6.15;98.25;97829.28;5073246;28;20200;-73
2023/12/09 00:11:47;;;;;;;29.65;26.70;;;;;;;6.29;97.53;97815.03;5078044;28;20211;-73
2023/12/09 00:14:14;;;;;;;30.25;27.00;;;;;;;6.35;97.35;97817.84;5075845;28;20196;-73
2023/12/09 00:16:41;;;;;;;33.65;29.42;;;;;;;6.42;96.45;97826.03;5076482;28;20673;-73
2023/12/09 00:19:11;;;;;;;34.28;30.63;;;;;;;6.27;96.76;97834.03;5075131;28;20278;-73
2023/12/09 00:21:37;;;;;;;29.10;26.10;;;;;;;6.28;97.35;97830.31;5079814;28;20253;-73
2023/12/09 00:24:04;;;;;;;39.33;32.85;;;;;;;6.13;97.62;97823.25;5077736;28;20585;-74
2023/12/09 00:26:31;;;;;;;33.25;29.75;;;;;;;6.25;97.16;97827.16;5077698;28;20204;-73
2023/12/09 00:28:58;;;;;;;36.28;31.52;;;;;;;6.18;96.93;97835.09;5074308;28;20208;-74
2023/12/09 00:31:24;;;;;;;28.45;25.65;;;;;;;6.29;96.88;97832.00;5078248;28;20197;-72
2023/12/09 00:33:51;;;;;;;31.90;28.67;;;;;;;6.18;96.89;97828.91;5062632;28;20211;-71
2023/12/09 00:36:19;;;;;;;26.48;23.88;;;;;;;6.21;97.01;97833.91;5079196;28;20204;-72
2023/12/09 00:38:45;;;;;;;27.27;24.38;;;;;;;6.33;96.69;97837.84;5080123;28;20203;-74
2023/12/09 00:41:12;;;;;;;30.52;27.25;;;;;;;6.39;95.97;97831.75;5080051;28;20202;-72
2023/12/09 00:43:38;;;;;;;34.03;30.27;;;;;;;6.28;95.78;97840.25;5097858;28;20312;-72
2023/12/09 00:46:06;;;;;;;34.80;30.05;;;;;;;6.34;95.65;97831.47;5099353;28;20204;-73
2023/12/09 00:48:33;;;;;;;34.15;29.73;;;;;;;6.27;95.82;97833.19;5080708;28;20209;-73
2023/12/09 00:50:59;;;;;;;27.70;24.73;;;;;;;6.32;95.70;97830.81;5081380;28;20583;-73
2023/12/09 00:53:27;;;;;;;30.75;27.58;;;;;;;6.06;96.14;97836.56;5099445;28;20202;-73
2023/12/09 00:55:55;;;;;;;30.33;26.90;;;;;;;5.91;97.26;97835.63;5080373;28;20212;-73
2023/12/09 00:58:21;;;;;;;33.50;29.38;;;;;;;5.92;97.36;97837.31;5077862;28;20201;-73
2023/12/09 01:00:49;;;;;;;25.60;23.20;;;;;;;6.16;96.57;97841.69;5080981;28;20202;-73
2023/12/09 01:03:15;;;;;;;31.73;25.17;;;;;;;6.25;96.17;97840.59;5080752;28;20228;-72
2023/12/09 01:05:42;;;;;;;32.58;29.08;;;;;;;6.34;95.45;97839.53;5079757;28;20659;-72
2023/12/09 01:08:08;;;;;;;30.58;27.48;;;;;;;6.20;95.92;97832.22;5095383;28;20211;-72
2023/12/09 01:10:36;;;;;;;28.50;25.45;;;;;;;6.20;95.66;97840.28;5064158;28;20285;-72
2023/12/09 01:13:03;;;;;;;34.17;30.05;;;;;;;6.13;96.20;97847.44;5080602;28;20235;-72
2023/12/09 01:15:29;;;;;;;32.58;28.05;;;;;;;6.02;96.93;97856.72;5097540;28;20564;-73
2023/12/09 01:17:56;;;;;;;35.95;30.77;;;;;;;5.96;96.88;97857.44;5080376;28;20289;-72
2023/12/09 01:20:24;;;;;;;36.50;28.73;;;;;;;5.99;96.74;97863.28;5080570;28;20679;-72
2023/12/09 01:22:51;;;;;;;28.92;25.98;;;;;;;6.02;97.30;97860.25;5078750;28;20222;-72
2023/12/09 01:25:17;;;;;;;38.00;32.60;;;;;;;6.12;96.34;97867.25;5077731;28;20204;-73
2023/12/09 01:27:45;;;;;;;28.02;25.25;;;;;;;6.14;96.81;97870.59;5064008;28;20205;-73
2023/12/09 01:30:12;;;;;;;33.20;29.60;;;;;;;6.05;96.26;97873.31;5079832;28;20196;-72
2023/12/09 01:32:39;;;;;;;33.20;29.48;;;;;;;6.12;96.36;97869.94;5095147;28;20272;-72
2023/12/09 01:35:06;;;;;;;35.35;31.17;;;;;;;6.12;96.22;97875.31;5077465;28;20207;-73
2023/12/09 01:37:33;;;;;;;30.05;27.02;;;;;;;6.15;96.97;97880.31;5047332;28;20199;-72
2023/12/09 01:39:59;;;;;;;30.45;26.90;;;;;;;6.24;96.21;97876.53;5077177;28;20216;-72
2023/12/09 01:42:26;;;;;;;30.73;27.42;;;;;;;6.22;95.92;97879.41;5079109;28;20311;-73
2023/12/09 01:44:54;;;;;;;29.98;26.77;;;;;;;6.32;95.67;97884.56;5078638;28;20197;-72
2023/12/09 01:47:20;;;;;;;30.45;27.42;;;;;;;6.14;96.05;97882.19;5077252;28;20211;-72
2023/12/09 01:49:47;;;;;;;25.48;23.02;;;;;;;6.13;96.56;97895.78;5111246;27;20205;-72
2023/12/09 01:52:14;;;;;;;25.30;22.63;;;;;;;6.30;95.54;97897.34;5078239;28;20193;-72
2023/12/09 01:54:40;;;;;;;26.75;24.05;;;;;;;6.38;95.03;97899.97;5078817;28;20303;-72
2023/12/09 01:57:07;;;;;;;29.48;26.30;;;;;;;6.31;95.29;97894.47;5075100;28;20666;-73
2023/12/09 01:59:33;;;;;;;29.08;26.13;;;;;;;6.29;95.32;97901.03;5077859;28;21066;-73
2023/12/09 02:02:02;;;;;;;30.45;26.50;;;;;;;6.20;95.75;97904.78;5061026;28;20596;-73
2023/12/09 02:04:28;;;;;;;32.10;27.40;;;;;;;6.10;96.02;97896.13;5079017;28;20203;-73
2023/12/09 02:06:55;;;;;;;31.13;27.60;;;;;;;6.13;96.31;97895.78;5078898;28;20206;-73
2023/12/09 02:09:22;;;;;;;29.90;26.90;;;;;;;6.27;95.65;97903.06;5079130;28;20614;-73
2023/12/09 02:11:55;;;;;;;26.38;23.67;;;;;;;6.36;95.36;97902.84;5078347;28;20208;-73
2023/12/09 02:14:29;;;;;;;32.40;28.33;;;;;;;6.43;94.87;97902.97;5061899;28;20203;-73
2023/12/09 02:17:02;;;;;;;32.78;26.95;;;;;;;6.36;94.91;97893.94;5074683;28;20712;-73
2023/12/09 02:19:30;;;;;;;26.42;23.83;;;;;;;6.34;95.19;97901.34;5081122;28;20212;-72
2023/12/09 02:21:57;;;;;;;24.02;21.73;;;;;;;6.55;93.63;97895.28;5078466;28;20200;-73
2023/12/09 02:24:25;;;;;;;29.15;24.85;;;;;;;6.53;93.34;97892.78;5080250;28;20230;-73
2023/12/09 02:26:53;;;;;;;23.83;19.90;;;;;;;6.52;93.95;97890.28;5079030;28;20206;-73
2023/12/09 02:29:21;;;;;;;29.75;24.33;;;;;;;6.34;94.62;97893.28;5076622;28;20206;-72
2023/12/09 02:31:50;;;;;;;24.15;21.73;;;;;;;6.30;94.52;97898.16;5075469;28;20215;-73
2023/12/09 02:34:16;;;;;;;26.85;19.60;;;;;;;6.33;94.25;97894.28;5077668;28;20551;-72
2023/12/09 02:36:44;;;;;;;27.13;22.45;;;;;;;6.16;94.91;97895.44;5078948;28;20200;-72
2023/12/09 02:39:13;;;;;;;21.15;19.20;;;;;;;6.16;95.16;97895.44;5078956;28;20207;-72
2023/12/09 02:41:46;;;;;;;23.17;20.88;;;;;;;6.19;95.25;97892.38;5041292;28;20280;-72
2023/12/09 02:44:13;;;;;;;19.77;17.83;;;;;;;6.22;95.07;97878.56;5081224;28;20254;-72
2023/12/09 02:46:41;;;;;;;21.42;19.33;;;;;;;6.29;95.15;97880.38;5078088;28;20214;-73
2023/12/09 02:49:07;;;;;;;22.77;20.50;;;;;;;6.30;95.25;97873.16;5079701;28;20287;-73
2023/12/09 02:51:34;;;;;;;25.38;22.65;;;;;;;6.37;94.50;97871.41;5080544;28;20210;-73
2023/12/09 02:54:00;;;;;;;22.23;20.15;;;;;;;6.12;96.08;97868.09;5077641;28;20198;-73
2023/12/09 02:56:27;;;;;;;20.42;18.42;;;;;;;6.29;95.55;97871.47;5072462;28;20228;-73
2023/12/09 02:58:55;;;;;;;22.95;20.58;;;;;;;6.48;94.39;97854.03;5054208;28;20200;-73
2023/12/09 03:01:22;;;;;;;22.38;20.38;;;;;;;6.29;94.84;97852.66;5091592;28;20192;-73
2023/12/09 03:03:49;;;;;;;20.95;18.85;;;;;;;6.25;95.27;97849.50;5075500;28;20298;-73
2023/12/09 03:06:16;;;;;;;22.98;20.73;;;;;;;6.25;94.96;97845.97;5066332;28;20217;-73
2023/12/09 03:08:42;;;;;;;22.80;20.48;;;;;;;6.28;95.29;97845.63;5082320;28;20207;-73
2023/12/09 03:11:09;;;;;;;20.23;18.10;;;;;;;6.19;95.04;97844.00;5080963;28;20220;-73
2023/12/09 03:13:35;;;;;;;19.92;18.05;;;;;;;6.35;94.96;97830.44;5081479;28;20203;-73
2023/12/09 03:16:04;;;;;;;20.25;18.13;;;;;;;6.16;95.33;97836.31;5083685;28;20550;-73
2023/12/09 03:18:30;;;;;;;20.95;17.73;;;;;;;6.24;95.31;97831.69;5083256;28;20207;-73
2023/12/09 03:20:57;;;;;;;23.10;20.75;;;;;;;6.38;94.49;97822.03;5064491;28;20207;-73
2023/12/09 03:23:24;;;;;;;19.08;17.17;;;;;;;6.32;94.64;97830.81;5079003;28;20223;-73
2023/12/09 03:25:50;;;;;;;23.17;20.23;;;;;;;6.41;94.02;97818.97;5083152;28;20203;-73
2023/12/09 03:28:18;;;;;;;26.75;21.30;;;;;;;6.43;93.79;97822.31;5080128;28;20836;-73
2023/12/09 03:30:45;;;;;;;22.33;20.20;;;;;;;6.52;93.15;97818.53;5080585;28;20673;-73
2023/12/09 03:33:13;;;;;;;22.50;20.02;;;;;;;6.39;93.21;97815.63;5078594;28;20191;-72
2023/12/09 03:35:39;;;;;;;20.25;18.25;;;;;;;6.21;94.08;97818.63;5064698;28;20260;-72
2023/12/09 03:38:06;;;;;;;22.35;20.10;;;;;;;6.31;94.06;97818.38;5082921;28;20565;-72
2023/12/09 03:40:33;;;;;;;23.05;20.85;;;;;;;6.12;94.33;97813.50;5097353;28;20207;-72
2023/12/09 03:42:59;;;;;;;22.02;19.80;;;;;;;6.15;94.38;97813.16;5065406;28;20335;-72
2023/12/09 03:45:26;;;;;;;20.55;17.70;;;;;;;6.18;94.46;97812.78;5078013;28;20200;-72
2023/12/09 03:47:52;;;;;;;26.55;20.58;;;;;;;5.96;95.21;97801.03;5100668;28;20196;-73
2023/12/09 03:50:21;;;;;;;21.70;19.50;;;;;;;5.92;95.32;97807.75;5079273;28;20203;-73
2023/12/09 03:52:48;;;;;;;21.67;19.50;;;;;;;5.94;95.37;97801.19;5095101;28;20210;-72
2023/12/09 03:55:15;;;;;;;20.20;18.13;;;;;;;5.94;95.71;97816.47;5116596;28;20210;-73
2023/12/09 03:57:41;;;;;;;22.15;19.90;;;;;;;5.92;95.37;97819.34;5065571;28;20557;-73
2023/12/09 04:00:09;;;;;;;23.83;21.35;;;;;;;6.05;94.60;97813.38;5083602;28;20206;-72
2023/12/09 04:02:36;;;;;;;23.10;20.75;;;;;;;6.09;93.65;97808.50;5077777;28;20560;-73
2023/12/09 04:05:03;;;;;;;23.67;21.10;;;;;;;5.91;94.20;97814.16;5082119;28;20200;-73
2023/12/09 04:07:32;;;;;;;26.65;23.30;;;;;;;5.87;94.22;97807.44;5081961;28;20207;-72
2023/12/09 04:09:58;;;;;;;25.55;22.88;;;;;;;5.85;94.07;97812.97;5097813;28;20222;-72
2023/12/09 04:12:25;;;;;;;23.02;20.45;;;;;;;5.83;94.49;97819.56;5063896;28;20291;-72
2023/12/09 04:14:52;;;;;;;23.48;21.08;;;;;;;5.74;95.33;97816.94;5083171;28;20205;-72
2023/12/09 04:17:21;;;;;;;25.15;22.55;;;;;;;5.71;94.63;97805.69;5084147;28;20287;-72
2023/12/09 04:19:48;;;;;;;25.20;22.58;;;;;;;5.80;93.67;97801.97;5084947;28;20210;-72
2023/12/09 04:22:15;;;;;;;19.90;17.90;;;;;;;5.49;95.18;97812.72;5052294;28;20199;-73
2023/12/09 04:24:42;;;;;;;19.60;17.77;;;;;;;5.55;96.59;97819.19;5080983;28;20215;-72
2023/12/09 04:27:09;;;;;;;21.98;18.85;;;;;;;5.62;96.54;97825.53;5101536;28;20245;-72
2023/12/09 04:29:36;;;;;;;21.70;19.25;;;;;;;5.68;96.04;97830.22;5071092;28;20288;-72
2023/12/09 04:32:03;;;;;;;26.08;22.20;;;;;;;5.77;95.53;97831.84;5080205;28;20188;-73
2023/12/09 04:34:29;;;;;;;19.52;17.70;;;;;;;5.77;95.79;97837.22;5079342;28;20390;-73
2023/12/09 04:36:56;;;;;;;20.05;18.10;;;;;;;5.73;96.19;97841.25;5082065;28;20287;-72
2023/12/09 04:39:23;;;;;;;28.10;21.40;;;;;;;5.85;95.51;97829.09;5086635;28;20200;-72
2023/12/09 04:41:51;;;;;;;19.52;17.42;;;;;;;5.83;95.32;97841.03;5084162;28;20229;-72
2023/12/09 04:44:17;;;;;;;19.85;17.83;;;;;;;5.79;96.16;97840.56;5085658;28;20386;-72
2023/12/09 04:46:44;;;;;;;20.80;18.73;;;;;;;6.13;94.77;97836.69;5061674;28;20207;-72
2023/12/09 04:49:10;;;;;;;21.90;19.58;;;;;;;6.19;94.15;97827.88;5082844;28;20209;-72
2023/12/09 04:51:37;;;;;;;19.60;17.50;;;;;;;6.18;93.70;97831.56;5083808;28;20211;-72
2023/12/09 04:54:03;;;;;;;22.35;18.95;;;;;;;6.09;94.21;97841.56;5100563;28;20191;-73
2023/12/09 04:56:30;;;;;;;18.00;16.20;;;;;;;6.15;94.46;97835.50;5098775;28;20207;-73
2023/12/09 04:58:58;;;;;;;20.98;18.77;;;;;;;6.15;94.31;97840.03;5080031;28;20845;-73
2023/12/09 05:01:25;;;;;;;19.45;17.65;;;;;;;6.18;93.71;97828.91;5096212;28;20192;-72
2023/12/09 05:03:51;;;;;;;19.85;17.88;;;;;;;6.15;93.70;97819.38;5067096;28;20217;-73
2023/12/09 05:06:18;;;;;;;21.70;19.02;;;;;;;5.93;95.31;97830.94;5081335;28;20519;-72
2023/12/09 05:08:44;;;;;;;21.95;19.85;;;;;;;6.04;94.56;97827.84;5101818;28;20222;-73
2023/12/09 05:11:13;;;;;;;23.60;18.77;;;;;;;5.93;95.12;97826.38;5066570;28;20215;-72
2023/12/09 05:13:39;;;;;;;23.88;21.35;;;;;;;5.86;94.74;97825.38;5083396;28;20251;-72
2023/12/09 05:16:10;;;;;;;21.48;17.77;;;;;;;5.89;95.07;97819.69;5095776;28;20208;-72
2023/12/09 05:18:37;;;;;;;29.45;20.15;;;;;;;5.62;95.88;97818.31;5081604;28;20199;-72
2023/12/09 05:21:05;;;;;;;18.27;16.48;;;;;;;5.74;96.42;97810.72;5083633;28;20709;-72
2023/12/09 05:23:32;;;;;;;19.38;17.45;;;;;;;5.73;96.30;97809.88;5084752;28;20215;-72
2023/12/09 05:25:59;;;;;;;21.73;19.55;;;;;;;5.66;95.87;97816.97;5060623;28;20231;-72
2023/12/09 05:28:26;;;;;;;22.88;19.75;;;;;;;5.69;95.93;97802.34;5081486;28;20208;-71
2023/12/09 05:30:53;;;;;;;21.73;18.98;;;;;;;5.57;96.15;97801.06;5081369;28;20200;-72
2023/12/09 05:33:21;;;;;;;19.05;17.02;;;;;;;5.57;96.29;97809.13;5082665;28;20290;-72
2023/12/09 05:35:48;;;;;;;18.65;16.73;;;;;;;5.70;95.93;97804.03;5077749;28;20235;-72
2023/12/09 05:38:14;;;;;;;19.20;15.77;;;;;;;5.36;96.29;97793.66;5080956;28;20256;-72
2023/12/09 05:40:41;;;;;;;18.80;17.00;;;;;;;5.46;96.72;97788.06;5084533;28;20210;-72
2023/12/09 05:43:07;;;;;;;17.67;15.77;;;;;;;5.47;96.22;97797.78;5081762;28;21375;-73
2023/12/09 05:45:33;;;;;;;20.55;16.83;;;;;;;5.54;95.86;97788.00;5100951;28;20196;-73
2023/12/09 05:48:00;;;;;;;17.60;15.90;;;;;;;5.57;95.67;97782.28;5085187;28;20703;-72
2023/12/09 05:50:28;;;;;;;15.43;14.00;;;;;;;5.65;95.44;97779.56;5061557;28;20203;-72
2023/12/09 05:52:55;;;;;;;19.45;16.65;;;;;;;5.54;95.61;97782.63;5100401;28;20198;-72
2023/12/09 05:55:21;;;;;;;16.60;14.90;;;;;;;5.70;95.00;97785.22;5094590;28;20211;-72
2023/12/09 05:57:48;;;;;;;15.48;13.98;;;;;;;5.65;95.23;97774.19;5075145;28;20219;-71
2023/12/09 06:00:15;;;;;;;15.38;13.93;;;;;;;5.59;95.19;97785.63;5073121;28;20207;-72
2023/12/09 06:02:42;;;;;;;16.90;15.25;;;;;;;5.63;95.09;97786.94;5084842;28;20652;-72
2023/12/09 06:05:09;;;;;;;21.90;16.45;;;;;;;5.52;95.72;97776.63;5080228;28;20231;-72
2023/12/09 06:07:36;;;;;;;18.80;15.43;;;;;;;5.53;95.54;97780.97;5080463;28;20558;-72
2023/12/09 06:10:05;;;;;;;19.40;16.38;;;;;;;5.58;95.24;97779.44;5078221;28;20210;-72
2023/12/09 06:12:32;;;;;;;15.90;14.23;;;;;;;5.39;95.70;97758.41;5063910;28;20212;-72
2023/12/09 06:14:58;;;;;;;17.67;14.30;;;;;;;5.57;95.13;97782.28;5076814;28;20196;-72
2023/12/09 06:17:25;;;;;;;15.60;13.65;;;;;;;5.60;95.35;97776.56;5078855;28;20290;-72
2023/12/09 06:19:51;;;;;;;14.93;13.32;;;;;;;5.49;95.36;97775.16;5083808;28;20196;-72
2023/12/09 06:22:18;;;;;;;20.17;15.55;;;;;;;5.60;95.08;97772.03;5078823;28;20668;-72
2023/12/09 06:24:47;;;;;;;16.40;14.68;;;;;;;5.58;95.04;97773.22;5079559;28;20213;-72
2023/12/09 06:27:13;;;;;;;15.95;13.73;;;;;;;5.72;94.44;97777.84;5099635;28;20253;-73
2023/12/09 06:29:41;;;;;;;20.50;15.15;;;;;;;5.46;94.72;97766.59;5081071;28;20595;-73
2023/12/09 06:32:08;;;;;;;16.38;14.40;;;;;;;5.46;95.57;97769.28;5076338;28;20208;-72
2023/12/09 06:34:34;;;;;;;15.45;13.43;;;;;;;5.55;95.26;97781.63;5063589;28;20286;-72
2023/12/09 06:37:01;;;;;;;16.67;14.77;;;;;;;5.58;95.47;97763.31;5081084;28;20204;-72
2023/12/09 06:39:28;;;;;;;16.77;14.98;;;;;;;5.48;95.65;97778.84;5079395;28;20560;-72
2023/12/09 06:41:56;;;;;;;14.77;13.30;;;;;;;5.58;95.33;97770.53;5067273;28;20203;-72
2023/12/09 06:44:22;;;;;;;17.33;13.52;;;;;;;5.58;95.45;97773.22;5101292;28;20681;-72
2023/12/09 06:46:49;;;;;;;14.77;13.30;;;;;;;5.51;95.43;97756.19;5083577;28;20210;-72
2023/12/09 06:49:17;;;;;;;12.88;11.68;;;;;;;5.67;95.02;97766.78;5078786;28;20202;-72
2023/12/09 06:51:43;;;;;;;14.60;12.60;;;;;;;5.67;95.00;97750.69;5080495;28;20187;-72
2023/12/09 06:54:10;;;;;;;13.77;12.48;;;;;;;5.63;94.54;97757.44;5083492;28;20207;-73
2023/12/09 06:56:37;;;;;;;13.55;12.25;;;;;;;5.53;95.03;97756.81;5064111;28;20225;-72
2023/12/09 06:59:05;;;;;;;13.95;12.20;;;;;;;5.62;95.05;97748.53;5078449;28;20204;-73
2023/12/09 07:01:32;;;;;;;11.52;10.43;;;;;;;5.52;95.47;97757.84;5081013;28;20261;-71
2023/12/09 07:03:58;;;;;;;18.10;10.95;;;;;;;5.38;95.78;97762.94;5101570;28;20208;-72
2023/12/09 07:06:26;;;;;;;12.93;11.63;;;;;;;5.57;95.72;97755.44;5080208;28;20195;-72
2023/12/09 07:08:53;;;;;;;16.23;11.82;;;;;;;5.60;94.94;97777.41;5082483;28;20821;-72
2023/12/09 07:11:21;;;;;;;10.60;9.55;;;;;;;5.71;94.78;97752.84;5079401;28;20341;-72
2023/12/09 07:13:48;;;;;;;12.88;9.88;;;;;;;5.78;94.17;97747.59;5081842;28;20256;-72
2023/12/09 07:16:16;;;;;;;12.10;10.55;;;;;;;5.80;93.63;97734.84;5078607;28;20208;-72
2023/12/09 07:18:45;;;;;;;14.25;10.02;;;;;;;5.89;93.38;97741.81;5095381;28;20193;-72
2023/12/09 07:21:12;;;;;;;12.63;9.50;;;;;;;5.62;94.49;97747.69;5062358;28;20529;-71
2023/12/09 07:23:38;;;;;;;14.30;9.20;;;;;;;5.65;94.49;97756.22;5071203;28;20210;-71
2023/12/09 07:26:05;;;;;;;10.40;9.40;;;;;;;5.74;94.21;97762.38;5076581;28;20222;-68
2023/12/09 07:28:32;;;;;;;10.52;8.90;;;;;;;5.77;94.05;97743.25;5107043;28;20645;-73
2023/12/09 07:30:58;;;;;;;9.35;8.45;;;;;;;5.89;93.71;97765.16;5079444;28;20612;-73
2023/12/09 07:33:27;;;;;;;10.30;7.82;;;;;;;5.95;93.25;97765.28;5080175;28;20199;-73
2023/12/09 07:35:54;;;;;;;8.13;7.30;;;;;;;5.94;93.06;97762.75;5079258;28;20717;-73
2023/12/09 07:38:21;;;;;;;8.15;7.35;;;;;;;5.86;93.72;97769.00;5100715;28;20281;-73
2023/12/09 07:40:48;;;;;;;11.48;7.60;;;;;;;5.89;93.59;97765.16;5094707;28;20736;-73
2023/12/09 07:43:15;;;;;;;8.77;7.25;;;;;;;5.96;93.27;97756.19;5090157;28;20199;-73
2023/12/09 07:45:41;;;;;;;10.95;7.97;;;;;;;5.95;93.34;97754.53;5082426;28;20220;-71
2023/12/09 07:48:08;;;;;;;7.95;7.15;;;;;;;6.04;93.06;97753.47;5085330;28;20214;-72
2023/12/09 07:50:36;;;;;;;8.05;6.80;;;;;;;5.96;93.22;97756.19;5119079;27;20210;-74
2023/12/09 07:53:03;;;;;;;7.55;6.05;;;;;;;5.97;93.48;97747.13;5083426;28;20207;-74
2023/12/09 07:55:30;;;;;;;11.32;6.22;;;;;;;5.94;92.58;97747.50;5081700;28;20199;-76
2023/12/09 07:57:59;;;;;;;8.15;5.60;;;;;;;6.11;92.67;97752.75;5100530;28;20200;-75
2023/12/09 08:00:27;;;;;;;7.40;5.88;;;;;;;6.18;92.01;97753.66;5060436;28;20209;-76
2023/12/09 08:02:54;;;;;;;5.82;5.22;;;;;;;6.32;91.08;97751.03;5082566;28;20208;-76
2023/12/09 08:05:21;;;;;;;8.85;5.68;;;;;;;6.19;91.27;97755.34;5085622;28;20217;-76
2023/12/09 08:07:49;;;;;;;6.60;5.10;;;;;;;6.27;91.31;97752.56;5073350;28;20203;-76
2023/12/09 08:10:16;;;;;;;8.63;4.80;;;;;;;6.18;91.13;97748.28;5088144;28;20211;-76
2023/12/09 08:12:42;;;;;;;7.32;4.72;;;;;;;6.06;91.39;97726.41;5087491;28;20291;-76
2023/12/09 08:15:10;;;;;;;8.63;4.75;;;;;;;6.01;91.26;97732.31;5085591;28;20204;-76
2023/12/09 08:17:37;;;;;;;6.07;4.85;;;;;;;6.21;90.83;97742.56;5085896;28;20195;-76
2023/12/09 08:20:08;;;;;;;8.10;5.55;;;;;;;6.10;90.65;97740.31;5065253;28;20215;-76
2023/12/09 08:22:35;;;;;;;5.82;4.20;;;;;;;6.32;90.49;97742.13;5068157;28;20199;-76
2023/12/09 08:25:04;;;;;;;6.65;4.57;;;;;;;6.28;89.91;97738.13;5081046;28;20268;-76
2023/12/09 08:27:30;;;;;;;5.93;4.32;;;;;;;6.11;89.72;97725.88;5083119;28;20214;-75
2023/12/09 08:29:57;;;;;;;6.90;4.35;;;;;;;6.13;90.05;97734.59;5101301;28;20559;-75
2023/12/09 08:32:23;;;;;;;4.90;4.00;;;;;;;6.02;90.37;97734.00;5081721;28;20203;-76
2023/12/09 08:34:52;;;;;;;8.23;4.55;;;;;;;6.27;89.94;97728.41;5084670;28;20964;-75
2023/12/09 08:37:25;;;;;;;5.30;4.30;;;;;;;6.29;89.46;97737.13;5067458;28;20221;-75
2023/12/09 08:39:53;;;;;;;5.63;4.65;;;;;;;6.29;89.36;97721.00;5079428;28;20287;-75
2023/12/09 08:42:21;;;;;;;6.15;4.78;;;;;;;6.31;89.45;97711.72;5085510;28;20426;-75
2023/12/09 08:44:48;;;;;;;5.00;4.60;;;;;;;6.43;89.67;97709.44;5111640;27;20220;-74
2023/12/09 08:47:15;;;;;;;7.60;5.00;;;;;;;6.53;88.90;97715.34;5113285;27;20212;-72
2023/12/09 08:49:43;;;;;;;4.90;4.50;;;;;;;6.81;87.73;97715.56;5067677;28;20211;-74
2023/12/09 08:52:09;;;;;;;6.57;4.80;;;;;;;6.96;87.02;97715.53;5113420;27;20203;-75
2023/12/09 08:54:36;;;;;;;6.35;4.10;;;;;;;7.06;86.17;97732.22;5077640;28;20282;-74
2023/12/09 08:57:03;;;;;;;5.40;4.18;;;;;;;6.97;86.36;97722.59;5079787;28;20569;-74
2023/12/09 08:59:31;;;;;;;4.60;4.20;;;;;;;6.99;86.33;97717.84;5077709;28;20221;-71
2023/12/09 09:01:58;;;;;;;6.53;4.35;;;;;;;7.16;86.10;97715.78;5076903;28;20203;-75
2023/12/09 09:04:24;;;;;;;7.05;4.70;;;;;;;7.05;85.82;97719.78;5063181;28;20202;-74
2023/12/09 09:06:51;;;;;;;4.78;4.35;;;;;;;6.96;86.22;97694.84;5065542;28;20832;-74
2023/12/09 09:09:18;;;;;;;5.18;4.40;;;;;;;7.13;86.14;97700.88;5076670;28;20204;-74
2023/12/09 09:11:45;;;;;;;6.07;4.57;;;;;;;7.20;85.78;97696.38;5082473;28;20211;-75
2023/12/09 09:14:13;;;;;;;6.18;4.78;;;;;;;7.05;85.16;97690.19;5079870;28;20205;-75
2023/12/09 09:16:41;;;;;;;9.13;4.63;;;;;;;6.92;85.52;97690.03;5084453;28;20199;-74
2023/12/09 09:19:07;;;;;;;4.80;4.40;;;;;;;7.02;85.94;97688.72;5081828;28;20202;-75
2023/12/09 09:21:34;;;;;;;8.35;5.22;;;;;;;6.92;85.52;97681.97;5083237;28;20203;-74
2023/12/09 09:24:00;;;;;;;6.25;4.63;;;;;;;7.05;86.03;97688.34;5094549;28;20672;-74
2023/12/09 09:26:27;;;;;;;7.53;5.00;;;;;;;6.99;86.05;97688.25;5076821;28;21550;-73
2023/12/09 09:28:55;;;;;;;7.03;5.55;;;;;;;6.69;86.76;97690.97;5065927;28;20214;-73
2023/12/09 09:31:22;;;;;;;4.95;4.50;;;;;;;6.76;86.20;97699.16;5101085;28;20211;-73
2023/12/09 09:33:50;;;;;;;7.25;5.88;;;;;;;6.62;86.91;97690.06;5112996;27;20206;-74
2023/12/09 09:36:18;;;;;;;4.90;4.40;;;;;;;6.59;86.86;97682.34;5083581;28;20198;-73
2023/12/09 09:38:47;;;;;;;6.07;4.30;;;;;;;6.52;86.63;97675.22;5101869;28;20200;-73
2023/12/09 09:41:21;;;;;;;6.50;4.85;;;;;;;6.59;86.85;97663.53;5099037;28;20249;-73
2023/12/09 09:43:59;;;;;;;6.57;4.78;;;;;;;6.68;86.09;97662.44;5064752;28;20206;-73
2023/12/09 09:46:26;;;;;;;7.30;4.65;;;;;;;6.55;86.32;97658.72;5098747;28;20216;-73
2023/12/09 09:48:56;;;;;;;6.40;5.00;;;;;;;6.57;86.59;97651.28;5067290;28;20207;-74
2023/12/09 09:51:26;;;;;;;5.60;4.10;;;;;;;6.58;86.46;97647.59;5101738;28;20214;-74
2023/12/09 09:54:03;;;;;;;7.13;4.85;;;;;;;6.72;86.06;97644.91;5103018;28;20665;-73
2023/12/09 09:56:31;;;;;;;5.05;4.57;;;;;;;6.72;85.86;97649.44;5077669;28;20188;-73
2023/12/09 09:58:58;;;;;;;6.72;5.60;;;;;;;6.74;85.41;97645.53;5065027;28;20573;-73
2023/12/09 10:01:27;;;;;;;5.43;4.30;;;;;;;6.86;85.30;97643.19;5084010;28;20294;-72
2023/12/09 10:03:54;;;;;;;6.32;5.22;;;;;;;6.82;85.81;97639.25;5099987;28;20289;-73
2023/12/09 10:06:21;;;;;;;5.05;4.38;;;;;;;6.92;85.12;97639.75;5099640;28;20223;-73
2023/12/09 10:08:48;;;;;;;7.03;4.85;;;;;;;6.82;85.45;97639.25;5079560;28;20317;-73
2023/12/09 10:11:14;;;;;;;6.45;5.13;;;;;;;6.87;85.81;97633.25;5081594;28;20211;-73
2023/12/09 10:13:41;;;;;;;6.60;4.72;;;;;;;6.78;85.27;97637.09;5099604;28;20200;-73
2023/12/09 10:16:09;;;;;;;6.72;5.50;;;;;;;6.87;85.60;97625.19;5080856;28;20656;-73
2023/12/09 10:18:35;;;;;;;8.82;5.18;;;;;;;6.85;85.88;97622.69;5096977;28;20537;-73
2023/12/09 10:21:04;;;;;;;5.43;4.75;;;;;;;6.91;85.47;97596.91;5080815;28;20568;-73
2023/12/09 10:23:31;;;;;;;5.57;4.72;;;;;;;6.92;85.37;97595.88;5077998;28;20687;-73
2023/12/09 10:25:59;;;;;;;5.53;4.90;;;;;;;6.94;84.84;97593.84;5100517;28;20219;-73
2023/12/09 10:28:25;;;;;;;5.90;5.05;;;;;;;6.96;84.60;97583.72;5083353;28;20203;-72
2023/12/09 10:30:53;;;;;;;7.97;5.30;;;;;;;6.84;85.19;97587.91;5111793;27;20200;-72
2023/12/09 10:33:21;;;;;;;4.70;4.15;;;;;;;7.12;nan;97580.78;5096679;28;20200;-72
2023/12/09 10:35:47;;;;;;;6.45;4.70;;;;;;;7.07;83.60;97576.00;5079230;28;20204;-72
2023/12/09 10:38:16;;;;;;;6.28;5.03;;;;;;;7.19;83.24;97578.97;5100898;28;20567;-72
2023/12/09 10:40:44;;;;;;;5.82;4.97;;;;;;;7.20;82.70;97567.19;5071533;28;20199;-72
2023/12/09 10:43:12;;;;;;;5.60;5.00;;;;;;;7.23;82.39;97561.44;5067244;28;20343;-72
2023/12/09 10:45:39;;;;;;;5.95;5.20;;;;;;;7.25;82.30;97548.63;5073185;28;20238;-72
2023/12/09 10:48:06;;;;;;;7.43;4.95;;;;;;;7.39;82.21;97545.03;5079412;28;20287;-72
2023/12/09 10:50:37;;;;;;;5.20;4.70;;;;;;;7.26;83.16;97544.91;5089737;28;20290;-72
2023/12/09 10:53:04;;;;;;;6.40;4.40;;;;;;;7.41;81.83;97548.34;5063373;28;20208;-72
2023/12/09 10:55:32;;;;;;;6.28;5.57;;;;;;;7.43;82.36;97536.56;5089207;28;20250;-71
2023/12/09 10:57:59;;;;;;;6.05;4.68;;;;;;;7.47;81.23;97525.22;5112326;27;20212;-71
2023/12/09 11:00:26;;;;;;;5.95;4.95;;;;;;;7.40;81.64;97537.78;5080569;28;20234;-72
2023/12/09 11:02:53;;;;;;;4.72;4.35;;;;;;;7.55;81.67;97522.34;5093817;28;20811;-75
2023/12/09 11:05:21;;;;;;;5.57;5.00;;;;;;;7.74;81.53;97518.16;5079144;28;20219;-68
2023/12/09 11:07:48;;;;;;;4.72;4.32;;;;;;;8.25;79.95;97507.03;5094257;28;20200;-68
2023/12/09 11:10:16;;;;;;;5.03;4.57;;;;;;;8.53;78.50;97499.69;5092388;28;20699;-72
2023/12/09 11:12:47;;;;;;;6.57;4.80;;;;;;;8.44;76.82;97494.69;5079926;28;20576;-71
2023/12/09 11:15:19;;;;;;;5.03;4.60;;;;;;;8.22;77.47;97494.78;5113849;27;20213;-72
2023/12/09 11:17:47;;;;;;;5.40;4.90;;;;;;;8.23;78.93;97471.34;5080544;28;20191;-72
2023/12/09 11:20:14;;;;;;;5.07;4.57;;;;;;;8.00;78.16;97466.28;5110453;27;20218;-71
2023/12/09 11:22:41;;;;;;;5.43;4.60;;;;;;;7.88;78.70;97457.91;5077289;28;20203;-71
2023/12/09 11:25:09;;;;;;;4.50;4.10;;;;;;;7.76;79.61;97448.75;5081493;28;20208;-71
2023/12/09 11:27:37;;;;;;;5.32;4.82;;;;;;;7.87;79.54;97442.78;5092475;28;20187;-71
2023/12/09 11:30:07;;;;;;;5.13;4.50;;;;;;;7.87;79.25;97437.41;5073416;28;20223;-72
2023/12/09 11:32:34;;;;;;;5.18;4.18;;;;;;;7.76;79.15;97427.22;5080132;28;20687;-72